FDX1493 KMEM-KRST
Flight info
| Callsign | FDX1493 |
|---|---|
| Flight time | 1h 26m |
| Altitude | 36000 |
| Route | JTEEE5 ODATE FTZ IOW |
| Aircraft | B752/M-VGDW/C |
Departure
| Time | 2026-05-06 15:02 |
|---|---|
| Airport | Memphis International Airport (KMEM) |
Arrival
| Time | 2026-05-06 16:29 |
|---|---|
| Airport | Rochester International Airport (KRST) |
| Time | Latitude | Longitude | Altitude | Speed | Heading |
|---|---|---|---|---|---|
| 2026-05-06 14:34 | 35.06442 | -89.97308 | 347 ft | 0 kts | 359° |
| 2026-05-06 14:47 | 35.06432 | -89.97308 | 347 ft | 1 kts | 359° |
| 2026-05-06 14:47 | 35.06422 | -89.97308 | 347 ft | 1 kts | 351° |
| 2026-05-06 14:48 | 35.06409 | -89.97302 | 347 ft | 2 kts | 330° |
| 2026-05-06 14:48 | 35.06398 | -89.97292 | 347 ft | 2 kts | 312° |
| 2026-05-06 14:48 | 35.06390 | -89.97279 | 347 ft | 1 kts | 294° |
| 2026-05-06 14:48 | 35.06385 | -89.97263 | 347 ft | 1 kts | 276° |
| 2026-05-06 14:49 | 35.06385 | -89.97254 | 347 ft | 1 kts | 270° |
| 2026-05-06 14:49 | 35.06385 | -89.97252 | 347 ft | 0 kts | 271° |
| 2026-05-06 14:51 | 35.06385 | -89.97259 | 347 ft | 4 kts | 271° |
| 2026-05-06 14:52 | 35.06385 | -89.97352 | 347 ft | 14 kts | 270° |
| 2026-05-06 14:52 | 35.06385 | -89.97472 | 347 ft | 12 kts | 270° |
| 2026-05-06 14:52 | 35.06353 | -89.97540 | 346 ft | 8 kts | 196° |
| 2026-05-06 14:52 | 35.06294 | -89.97543 | 346 ft | 10 kts | 179° |
| 2026-05-06 14:53 | 35.06209 | -89.97542 | 346 ft | 14 kts | 179° |
| 2026-05-06 14:53 | 35.06095 | -89.97541 | 346 ft | 17 kts | 180° |
| 2026-05-06 14:53 | 35.05975 | -89.97533 | 346 ft | 16 kts | 167° |
| 2026-05-06 14:53 | 35.05875 | -89.97498 | 346 ft | 13 kts | 162° |
| 2026-05-06 14:54 | 35.05790 | -89.97483 | 347 ft | 12 kts | 180° |
| 2026-05-06 14:54 | 35.05693 | -89.97485 | 346 ft | 15 kts | 181° |
| 2026-05-06 14:54 | 35.05573 | -89.97487 | 346 ft | 19 kts | 179° |
| 2026-05-06 14:54 | 35.05429 | -89.97484 | 346 ft | 20 kts | 179° |
| 2026-05-06 14:55 | 35.05294 | -89.97481 | 347 ft | 18 kts | 179° |
| 2026-05-06 14:55 | 35.05177 | -89.97478 | 347 ft | 15 kts | 179° |
| 2026-05-06 14:55 | 35.05068 | -89.97475 | 346 ft | 16 kts | 179° |
| 2026-05-06 14:55 | 35.04946 | -89.97473 | 346 ft | 19 kts | 179° |
| 2026-05-06 14:56 | 35.04800 | -89.97471 | 346 ft | 21 kts | 179° |
| 2026-05-06 14:56 | 35.04661 | -89.97468 | 346 ft | 18 kts | 179° |
| 2026-05-06 14:56 | 35.04539 | -89.97465 | 346 ft | 16 kts | 179° |
| 2026-05-06 14:56 | 35.04432 | -89.97463 | 346 ft | 15 kts | 179° |
| 2026-05-06 14:57 | 35.04319 | -89.97460 | 346 ft | 17 kts | 179° |
| 2026-05-06 14:57 | 35.04189 | -89.97457 | 346 ft | 19 kts | 179° |
| 2026-05-06 14:57 | 35.04051 | -89.97455 | 346 ft | 19 kts | 179° |
| 2026-05-06 14:57 | 35.03922 | -89.97452 | 346 ft | 17 kts | 179° |
| 2026-05-06 14:58 | 35.03808 | -89.97450 | 346 ft | 16 kts | 179° |
| 2026-05-06 14:58 | 35.03684 | -89.97446 | 346 ft | 18 kts | 179° |
| 2026-05-06 14:58 | 35.03545 | -89.97444 | 346 ft | 21 kts | 179° |
| 2026-05-06 14:58 | 35.03392 | -89.97441 | 346 ft | 22 kts | 179° |
| 2026-05-06 14:59 | 35.03231 | -89.97437 | 346 ft | 22 kts | 179° |
| 2026-05-06 14:59 | 35.03084 | -89.97434 | 346 ft | 20 kts | 179° |
| 2026-05-06 14:59 | 35.02952 | -89.97433 | 346 ft | 17 kts | 179° |
| 2026-05-06 14:59 | 35.02839 | -89.97430 | 346 ft | 15 kts | 178° |
| 2026-05-06 15:00 | 35.02738 | -89.97427 | 346 ft | 13 kts | 179° |
| 2026-05-06 15:00 | 35.02626 | -89.97425 | 346 ft | 18 kts | 179° |
| 2026-05-06 15:00 | 35.02496 | -89.97422 | 346 ft | 14 kts | 178° |
| 2026-05-06 15:00 | 35.02427 | -89.97459 | 346 ft | 10 kts | 245° |
| 2026-05-06 15:01 | 35.02429 | -89.97541 | 346 ft | 8 kts | 318° |
| 2026-05-06 15:01 | 35.02490 | -89.97555 | 346 ft | 11 kts | 359° |
| 2026-05-06 15:01 | 35.02775 | -89.97561 | 347 ft | 75 kts | 359° |
| 2026-05-06 15:01 | 35.03524 | -89.97578 | 348 ft | 138 kts | 358° |
| 2026-05-06 15:02 | 35.04606 | -89.97617 | 664 ft | 168 kts | 358° |
| 2026-05-06 15:02 | 35.05836 | -89.97652 | 1339 ft | 185 kts | 359° |
| 2026-05-06 15:02 | 35.07158 | -89.97685 | 2041 ft | 201 kts | 359° |
| 2026-05-06 15:02 | 35.08645 | -89.97785 | 2592 ft | 225 kts | 349° |
| 2026-05-06 15:03 | 35.10226 | -89.98256 | 3198 ft | 247 kts | 343° |
| 2026-05-06 15:03 | 35.11925 | -89.98793 | 3959 ft | 262 kts | 342° |
| 2026-05-06 15:03 | 35.13699 | -89.99358 | 4982 ft | 266 kts | 341° |
| 2026-05-06 15:03 | 35.15522 | -89.99777 | 5958 ft | 273 kts | 345° |
| 2026-05-06 15:04 | 35.17400 | -90.00153 | 6855 ft | 280 kts | 343° |
| 2026-05-06 15:04 | 35.19330 | -90.00544 | 7780 ft | 285 kts | 343° |
| 2026-05-06 15:04 | 35.21292 | -90.00936 | 8689 ft | 289 kts | 343° |
| 2026-05-06 15:04 | 35.23332 | -90.01149 | 9451 ft | 302 kts | 349° |
| 2026-05-06 15:05 | 35.25419 | -90.01285 | 10345 ft | 304 kts | 348° |
| 2026-05-06 15:05 | 35.27595 | -90.01440 | 10822 ft | 323 kts | 349° |
| 2026-05-06 15:05 | 35.29912 | -90.01592 | 11213 ft | 344 kts | 349° |
| 2026-05-06 15:05 | 35.32319 | -90.01737 | 11960 ft | 350 kts | 349° |
| 2026-05-06 15:06 | 35.34767 | -90.01883 | 12708 ft | 356 kts | 348° |
| 2026-05-06 15:06 | 35.37244 | -90.02030 | 13580 ft | 357 kts | 348° |
| 2026-05-06 15:06 | 35.39712 | -90.02177 | 14391 ft | 360 kts | 347° |
| 2026-05-06 15:06 | 35.42235 | -90.02333 | 15094 ft | 366 kts | 347° |
| 2026-05-06 15:07 | 35.44776 | -90.02483 | 15939 ft | 368 kts | 347° |
| 2026-05-06 15:07 | 35.47343 | -90.02641 | 16626 ft | 373 kts | 346° |
| 2026-05-06 15:07 | 35.49948 | -90.02799 | 17333 ft | 377 kts | 346° |
| 2026-05-06 15:07 | 35.52558 | -90.02955 | 18078 ft | 380 kts | 346° |
| 2026-05-06 15:08 | 35.55217 | -90.03117 | 18702 ft | 385 kts | 345° |
| 2026-05-06 15:08 | 35.57901 | -90.03278 | 19459 ft | 386 kts | 345° |
| 2026-05-06 15:08 | 35.60600 | -90.03446 | 19988 ft | 393 kts | 346° |
| 2026-05-06 15:08 | 35.63334 | -90.03614 | 20747 ft | 392 kts | 345° |
| 2026-05-06 15:09 | 35.66034 | -90.03844 | 21340 ft | 395 kts | 343° |
| 2026-05-06 15:09 | 35.68816 | -90.04092 | 21797 ft | 403 kts | 344° |
| 2026-05-06 15:09 | 35.71582 | -90.04325 | 22522 ft | 402 kts | 343° |
| 2026-05-06 15:09 | 35.74403 | -90.04577 | 22917 ft | 411 kts | 343° |
| 2026-05-06 15:10 | 35.77256 | -90.04803 | 23555 ft | 414 kts | 345° |
| 2026-05-06 15:10 | 35.80069 | -90.05169 | 24029 ft | 406 kts | 335° |
| 2026-05-06 15:10 | 35.82769 | -90.06062 | 24721 ft | 395 kts | 330° |
| 2026-05-06 15:10 | 35.85444 | -90.06988 | 25162 ft | 404 kts | 331° |
| 2026-05-06 15:11 | 35.88139 | -90.07865 | 25654 ft | 409 kts | 332° |
| 2026-05-06 15:11 | 35.90913 | -90.08746 | 26174 ft | 412 kts | 332° |
| 2026-05-06 15:11 | 35.93690 | -90.09614 | 26708 ft | 415 kts | 332° |
| 2026-05-06 15:11 | 35.96483 | -90.10478 | 27283 ft | 416 kts | 332° |
| 2026-05-06 15:12 | 35.99324 | -90.11356 | 27685 ft | 421 kts | 332° |
| 2026-05-06 15:12 | 36.02179 | -90.12238 | 28018 ft | 428 kts | 332° |
| 2026-05-06 15:12 | 36.05043 | -90.13111 | 28703 ft | 425 kts | 332° |
| 2026-05-06 15:12 | 36.07947 | -90.14004 | 29094 ft | 429 kts | 332° |
| 2026-05-06 15:13 | 36.10830 | -90.14892 | 29421 ft | 435 kts | 332° |
| 2026-05-06 15:13 | 36.13788 | -90.15798 | 29944 ft | 435 kts | 332° |
| 2026-05-06 15:13 | 36.16717 | -90.16694 | 30473 ft | 433 kts | 331° |
| 2026-05-06 15:13 | 36.19638 | -90.17598 | 30676 ft | 440 kts | 332° |
| 2026-05-06 15:14 | 36.22611 | -90.18508 | 31222 ft | 438 kts | 331° |
| 2026-05-06 15:14 | 36.25554 | -90.19415 | 31558 ft | 440 kts | 331° |
| 2026-05-06 15:14 | 36.28507 | -90.20322 | 32104 ft | 437 kts | 330° |
| 2026-05-06 15:14 | 36.31440 | -90.21224 | 32618 ft | 434 kts | 330° |
| 2026-05-06 15:15 | 36.34367 | -90.22128 | 33077 ft | 432 kts | 330° |
| 2026-05-06 15:15 | 36.37275 | -90.23020 | 33706 ft | 427 kts | 329° |
| 2026-05-06 15:15 | 36.40168 | -90.23923 | 33970 ft | 430 kts | 329° |
| 2026-05-06 15:15 | 36.43093 | -90.24831 | 34279 ft | 431 kts | 329° |
| 2026-05-06 15:16 | 36.45969 | -90.25716 | 34957 ft | 424 kts | 329° |
| 2026-05-06 15:16 | 36.48835 | -90.26607 | 35245 ft | 425 kts | 329° |
| 2026-05-06 15:16 | 36.51659 | -90.27479 | 35800 ft | 421 kts | 328° |
| 2026-05-06 15:16 | 36.54530 | -90.28374 | 36065 ft | 420 kts | 328° |
| 2026-05-06 15:17 | 36.57352 | -90.29250 | 36015 ft | 419 kts | 328° |
| 2026-05-06 15:17 | 36.63028 | -90.31021 | 36037 ft | 421 kts | 328° |
| 2026-05-06 15:18 | 36.68671 | -90.32778 | 36041 ft | 420 kts | 328° |
| 2026-05-06 15:18 | 36.74320 | -90.34540 | 36042 ft | 419 kts | 328° |
| 2026-05-06 15:19 | 36.80002 | -90.36317 | 36044 ft | 420 kts | 328° |
| 2026-05-06 15:19 | 36.85612 | -90.38071 | 36047 ft | 419 kts | 328° |
| 2026-05-06 15:20 | 36.91245 | -90.39836 | 36040 ft | 419 kts | 328° |
| 2026-05-06 15:20 | 36.96900 | -90.41615 | 36044 ft | 421 kts | 328° |
| 2026-05-06 15:21 | 37.02566 | -90.43391 | 36034 ft | 420 kts | 328° |
| 2026-05-06 15:21 | 37.08234 | -90.45176 | 36024 ft | 418 kts | 328° |
| 2026-05-06 15:22 | 37.13867 | -90.46952 | 36017 ft | 418 kts | 328° |
| 2026-05-06 15:22 | 37.19514 | -90.48740 | 36023 ft | 422 kts | 328° |
| 2026-05-06 15:23 | 37.25184 | -90.50527 | 36021 ft | 418 kts | 328° |
| 2026-05-06 15:23 | 37.30842 | -90.52320 | 36011 ft | 417 kts | 328° |
| 2026-05-06 15:24 | 37.36454 | -90.54106 | 36019 ft | 421 kts | 328° |
| 2026-05-06 15:24 | 37.42137 | -90.55905 | 36011 ft | 417 kts | 328° |
| 2026-05-06 15:25 | 37.47740 | -90.57691 | 36017 ft | 417 kts | 328° |
| 2026-05-06 15:25 | 37.53360 | -90.59483 | 36010 ft | 417 kts | 327° |
| 2026-05-06 15:26 | 37.58993 | -90.61279 | 36019 ft | 416 kts | 328° |
| 2026-05-06 15:26 | 37.64587 | -90.63068 | 36015 ft | 417 kts | 328° |
| 2026-05-06 15:27 | 37.70223 | -90.64877 | 36024 ft | 421 kts | 327° |
| 2026-05-06 15:27 | 37.75849 | -90.66676 | 36060 ft | 417 kts | 327° |
| 2026-05-06 15:28 | 37.81477 | -90.68481 | 36060 ft | 412 kts | 327° |
| 2026-05-06 15:28 | 37.87049 | -90.70281 | 36064 ft | 416 kts | 327° |
| 2026-05-06 15:29 | 37.92646 | -90.72084 | 36063 ft | 418 kts | 327° |
| 2026-05-06 15:29 | 37.98248 | -90.73888 | 36049 ft | 413 kts | 327° |
| 2026-05-06 15:30 | 38.03805 | -90.75686 | 36057 ft | 414 kts | 326° |
| 2026-05-06 15:30 | 38.09391 | -90.77497 | 36064 ft | 416 kts | 326° |
| 2026-05-06 15:31 | 38.15022 | -90.79322 | 36058 ft | 416 kts | 327° |
| 2026-05-06 15:31 | 38.20579 | -90.81123 | 36057 ft | 411 kts | 326° |
| 2026-05-06 15:32 | 38.28693 | -90.83771 | 36062 ft | 415 kts | 326° |
| 2026-05-06 15:32 | 38.34298 | -90.85596 | 36061 ft | 415 kts | 326° |
| 2026-05-06 15:33 | 38.39897 | -90.87425 | 36066 ft | 415 kts | 327° |
| 2026-05-06 15:33 | 38.45212 | -90.89160 | 36069 ft | 412 kts | 327° |
| 2026-05-06 15:34 | 38.50770 | -90.90981 | 36064 ft | 410 kts | 327° |
| 2026-05-06 15:34 | 38.56303 | -90.92799 | 36067 ft | 410 kts | 327° |
| 2026-05-06 15:35 | 38.61863 | -90.94632 | 36068 ft | 416 kts | 326° |
| 2026-05-06 15:35 | 38.67436 | -90.96458 | 36063 ft | 412 kts | 326° |
| 2026-05-06 15:36 | 38.73138 | -90.97954 | 36069 ft | 424 kts | 332° |
| 2026-05-06 15:36 | 38.78949 | -90.99206 | 36069 ft | 424 kts | 331° |
| 2026-05-06 15:37 | 38.84736 | -91.00467 | 36060 ft | 423 kts | 331° |
| 2026-05-06 15:37 | 38.90525 | -91.01730 | 36067 ft | 420 kts | 331° |
| 2026-05-06 15:38 | 38.96286 | -91.02996 | 36036 ft | 420 kts | 331° |
| 2026-05-06 15:38 | 39.02096 | -91.04281 | 36078 ft | 427 kts | 331° |
| 2026-05-06 15:39 | 39.07935 | -91.05559 | 36062 ft | 422 kts | 332° |
| 2026-05-06 15:39 | 39.13689 | -91.06827 | 36061 ft | 422 kts | 331° |
| 2026-05-06 15:40 | 39.19492 | -91.08113 | 36056 ft | 423 kts | 332° |
| 2026-05-06 15:40 | 39.25269 | -91.09388 | 36062 ft | 420 kts | 331° |
| 2026-05-06 15:41 | 39.31074 | -91.10682 | 36162 ft | 427 kts | 331° |
| 2026-05-06 15:41 | 39.34070 | -91.11347 | 36056 ft | 426 kts | 332° |
| 2026-05-06 15:41 | 39.36980 | -91.11988 | 36064 ft | 424 kts | 332° |
| 2026-05-06 15:42 | 39.42740 | -91.13269 | 36063 ft | 422 kts | 332° |
| 2026-05-06 15:42 | 39.48572 | -91.14574 | 36071 ft | 425 kts | 332° |
| 2026-05-06 15:43 | 39.54375 | -91.15865 | 36065 ft | 423 kts | 332° |
| 2026-05-06 15:43 | 39.60194 | -91.17167 | 36059 ft | 425 kts | 332° |
| 2026-05-06 15:44 | 39.65214 | -91.18288 | 36054 ft | 423 kts | 332° |
| 2026-05-06 15:44 | 39.71007 | -91.19588 | 36056 ft | 424 kts | 332° |
| 2026-05-06 15:45 | 39.76857 | -91.20907 | 36066 ft | 426 kts | 332° |
| 2026-05-06 15:45 | 39.82602 | -91.22193 | 36061 ft | 421 kts | 332° |
| 2026-05-06 15:46 | 39.88409 | -91.23511 | 36055 ft | 428 kts | 332° |
| 2026-05-06 15:46 | 39.94257 | -91.24826 | 36058 ft | 424 kts | 332° |
| 2026-05-06 15:47 | 40.00059 | -91.26139 | 36063 ft | 425 kts | 332° |
| 2026-05-06 15:47 | 40.05877 | -91.27457 | 36060 ft | 423 kts | 332° |
| 2026-05-06 15:48 | 40.11652 | -91.28769 | 36054 ft | 424 kts | 332° |
| 2026-05-06 15:48 | 40.17509 | -91.30107 | 36057 ft | 431 kts | 333° |
| 2026-05-06 15:49 | 40.23392 | -91.31435 | 35941 ft | 425 kts | 333° |
| 2026-05-06 15:49 | 40.26305 | -91.32101 | 36043 ft | 423 kts | 333° |
| 2026-05-06 15:49 | 40.29083 | -91.32740 | 36064 ft | 426 kts | 333° |
| 2026-05-06 15:50 | 40.35001 | -91.34095 | 36057 ft | 431 kts | 333° |
| 2026-05-06 15:50 | 40.40931 | -91.35456 | 36066 ft | 435 kts | 334° |
| 2026-05-06 15:51 | 40.46842 | -91.36804 | 36070 ft | 431 kts | 333° |
| 2026-05-06 15:51 | 40.52761 | -91.38165 | 36070 ft | 429 kts | 334° |
| 2026-05-06 15:52 | 40.58659 | -91.39526 | 36078 ft | 431 kts | 334° |
| 2026-05-06 15:52 | 40.64550 | -91.40884 | 36085 ft | 432 kts | 334° |
| 2026-05-06 15:53 | 40.70504 | -91.42262 | 36062 ft | 435 kts | 334° |
| 2026-05-06 15:53 | 40.76377 | -91.43614 | 36077 ft | 428 kts | 334° |
| 2026-05-06 15:54 | 40.82289 | -91.44992 | 36083 ft | 433 kts | 335° |
| 2026-05-06 15:54 | 40.88235 | -91.46373 | 36050 ft | 435 kts | 335° |
| 2026-05-06 15:55 | 40.94167 | -91.47752 | 36071 ft | 435 kts | 335° |
| 2026-05-06 15:55 | 41.00131 | -91.49143 | 36063 ft | 436 kts | 335° |
| 2026-05-06 15:56 | 41.06122 | -91.50544 | 36068 ft | 438 kts | 336° |
| 2026-05-06 15:56 | 41.12062 | -91.51932 | 36067 ft | 436 kts | 336° |
| 2026-05-06 15:57 | 41.18066 | -91.53341 | 36044 ft | 437 kts | 336° |
| 2026-05-06 15:57 | 41.23921 | -91.54717 | 36068 ft | 441 kts | 336° |
| 2026-05-06 15:58 | 41.29901 | -91.56118 | 36054 ft | 434 kts | 336° |
| 2026-05-06 15:58 | 41.32881 | -91.56825 | 36292 ft | 438 kts | 337° |
| 2026-05-06 15:58 | 41.35886 | -91.57539 | 36064 ft | 441 kts | 337° |
| 2026-05-06 15:59 | 41.41853 | -91.58937 | 36064 ft | 431 kts | 336° |
| 2026-05-06 15:59 | 41.47770 | -91.60345 | 36070 ft | 437 kts | 337° |
| 2026-05-06 16:00 | 41.53327 | -91.61721 | 36070 ft | 434 kts | 335° |
| 2026-05-06 16:00 | 41.58958 | -91.63377 | 36069 ft | 432 kts | 335° |
| 2026-05-06 16:01 | 41.64814 | -91.65099 | 36074 ft | 435 kts | 335° |
| 2026-05-06 16:01 | 41.70691 | -91.66818 | 36085 ft | 431 kts | 335° |
| 2026-05-06 16:02 | 41.76451 | -91.68514 | 36086 ft | 434 kts | 335° |
| 2026-05-06 16:02 | 41.82156 | -91.70194 | 36083 ft | 434 kts | 335° |
| 2026-05-06 16:03 | 41.88062 | -91.71936 | 36088 ft | 435 kts | 336° |
| 2026-05-06 16:03 | 41.93745 | -91.73614 | 35992 ft | 437 kts | 336° |
| 2026-05-06 16:04 | 41.96746 | -91.74508 | 35548 ft | 444 kts | 336° |
| 2026-05-06 16:04 | 41.99767 | -91.75400 | 35117 ft | 442 kts | 336° |
| 2026-05-06 16:04 | 42.02728 | -91.76273 | 34680 ft | 439 kts | 336° |
| 2026-05-06 16:04 | 42.05736 | -91.77165 | 34236 ft | 438 kts | 336° |
| 2026-05-06 16:05 | 42.08686 | -91.78042 | 33806 ft | 439 kts | 336° |
| 2026-05-06 16:05 | 42.11682 | -91.78934 | 33383 ft | 441 kts | 336° |
| 2026-05-06 16:05 | 42.14637 | -91.79813 | 32962 ft | 441 kts | 336° |
| 2026-05-06 16:05 | 42.17644 | -91.80709 | 32540 ft | 442 kts | 336° |
| 2026-05-06 16:06 | 42.20644 | -91.81603 | 32113 ft | 441 kts | 336° |
| 2026-05-06 16:06 | 42.23622 | -91.82490 | 31708 ft | 439 kts | 335° |
| 2026-05-06 16:06 | 42.26599 | -91.83379 | 31304 ft | 440 kts | 335° |
| 2026-05-06 16:06 | 42.29411 | -91.84222 | 30918 ft | 440 kts | 335° |
| 2026-05-06 16:07 | 42.32196 | -91.85055 | 30510 ft | 441 kts | 335° |
| 2026-05-06 16:07 | 42.34273 | -91.85677 | 30182 ft | 441 kts | 335° |
| 2026-05-06 16:07 | 42.37323 | -91.86593 | 29677 ft | 443 kts | 335° |
| 2026-05-06 16:07 | 42.40330 | -91.87498 | 29183 ft | 445 kts | 335° |
| 2026-05-06 16:08 | 42.43295 | -91.88382 | 28680 ft | 437 kts | 335° |
| 2026-05-06 16:08 | 42.46237 | -91.89260 | 28179 ft | 427 kts | 335° |
| 2026-05-06 16:08 | 42.49095 | -91.90119 | 27676 ft | 420 kts | 335° |
| 2026-05-06 16:08 | 42.51970 | -91.90990 | 27179 ft | 420 kts | 335° |
| 2026-05-06 16:09 | 42.54743 | -91.91828 | 26702 ft | 419 kts | 335° |
| 2026-05-06 16:09 | 42.57160 | -91.92558 | 26274 ft | 416 kts | 335° |
| 2026-05-06 16:09 | 42.59974 | -91.93407 | 25772 ft | 411 kts | 335° |
| 2026-05-06 16:09 | 42.62762 | -91.94249 | 25272 ft | 406 kts | 335° |
| 2026-05-06 16:10 | 42.65480 | -91.95071 | 24775 ft | 403 kts | 335° |
| 2026-05-06 16:10 | 42.68214 | -91.95901 | 24292 ft | 401 kts | 335° |
| 2026-05-06 16:10 | 42.70937 | -91.96729 | 23799 ft | 400 kts | 335° |
| 2026-05-06 16:10 | 42.73620 | -91.97543 | 23311 ft | 396 kts | 335° |
| 2026-05-06 16:11 | 42.76270 | -91.98347 | 22825 ft | 390 kts | 336° |
| 2026-05-06 16:11 | 42.78898 | -91.99146 | 22345 ft | 386 kts | 336° |
| 2026-05-06 16:11 | 42.81518 | -91.99944 | 21864 ft | 383 kts | 337° |
| 2026-05-06 16:11 | 42.84103 | -92.00733 | 21377 ft | 381 kts | 337° |
| 2026-05-06 16:12 | 42.86694 | -92.01523 | 20897 ft | 378 kts | 338° |
| 2026-05-06 16:12 | 42.89222 | -92.02294 | 20408 ft | 372 kts | 338° |
| 2026-05-06 16:12 | 42.91745 | -92.03064 | 19896 ft | 369 kts | 339° |
| 2026-05-06 16:12 | 42.94211 | -92.03818 | 19418 ft | 367 kts | 339° |
| 2026-05-06 16:13 | 42.96715 | -92.04586 | 18922 ft | 365 kts | 340° |
| 2026-05-06 16:13 | 42.99155 | -92.05332 | 18428 ft | 360 kts | 341° |
| 2026-05-06 16:13 | 43.01601 | -92.06081 | 17918 ft | 357 kts | 341° |
| 2026-05-06 16:13 | 43.03986 | -92.06808 | 17403 ft | 348 kts | 341° |
| 2026-05-06 16:14 | 43.06327 | -92.07526 | 16892 ft | 343 kts | 341° |
| 2026-05-06 16:14 | 43.08628 | -92.08234 | 16385 ft | 338 kts | 342° |
| 2026-05-06 16:14 | 43.10876 | -92.08924 | 15880 ft | 334 kts | 342° |
| 2026-05-06 16:14 | 43.13143 | -92.09621 | 15357 ft | 329 kts | 342° |
| 2026-05-06 16:15 | 43.15348 | -92.10300 | 14843 ft | 326 kts | 342° |
| 2026-05-06 16:15 | 43.17547 | -92.10977 | 14333 ft | 322 kts | 342° |
| 2026-05-06 16:15 | 43.19391 | -92.11547 | 13902 ft | 319 kts | 343° |
| 2026-05-06 16:15 | 43.21530 | -92.12207 | 13390 ft | 316 kts | 343° |
| 2026-05-06 16:16 | 43.23547 | -92.12829 | 12902 ft | 313 kts | 343° |
| 2026-05-06 16:16 | 43.25691 | -92.13490 | 12414 ft | 308 kts | 343° |
| 2026-05-06 16:16 | 43.27749 | -92.14126 | 12032 ft | 302 kts | 343° |
| 2026-05-06 16:16 | 43.29800 | -92.14565 | 11644 ft | 299 kts | 355° |
| 2026-05-06 16:17 | 43.31869 | -92.14465 | 11261 ft | 295 kts | 359° |
| 2026-05-06 16:17 | 43.33902 | -92.14302 | 10867 ft | 290 kts | 359° |
| 2026-05-06 16:17 | 43.35825 | -92.14151 | 10492 ft | 285 kts | 359° |
| 2026-05-06 16:17 | 43.37626 | -92.14014 | 10138 ft | 281 kts | 359° |
| 2026-05-06 16:18 | 43.39583 | -92.13869 | 9742 ft | 278 kts | 359° |
| 2026-05-06 16:18 | 43.41483 | -92.13728 | 9351 ft | 274 kts | 359° |
| 2026-05-06 16:18 | 43.43371 | -92.13590 | 8959 ft | 271 kts | 359° |
| 2026-05-06 16:18 | 43.45257 | -92.13456 | 8563 ft | 268 kts | 359° |
| 2026-05-06 16:19 | 43.47104 | -92.13327 | 8171 ft | 265 kts | 359° |
| 2026-05-06 16:19 | 43.48912 | -92.13201 | 7783 ft | 262 kts | 359° |
| 2026-05-06 16:19 | 43.50724 | -92.13077 | 7386 ft | 260 kts | 359° |
| 2026-05-06 16:19 | 43.52525 | -92.12959 | 6992 ft | 258 kts | 359° |
| 2026-05-06 16:20 | 43.54302 | -92.12849 | 6603 ft | 256 kts | 359° |
| 2026-05-06 16:20 | 43.56082 | -92.12866 | 6213 ft | 251 kts | 351° |
| 2026-05-06 16:20 | 43.57781 | -92.13214 | 5835 ft | 249 kts | 348° |
| 2026-05-06 16:20 | 43.59479 | -92.13596 | 5545 ft | 243 kts | 348° |
| 2026-05-06 16:21 | 43.61138 | -92.13964 | 5273 ft | 238 kts | 348° |
| 2026-05-06 16:21 | 43.62734 | -92.14317 | 5016 ft | 232 kts | 348° |
| 2026-05-06 16:21 | 43.64328 | -92.14670 | 4755 ft | 227 kts | 348° |
| 2026-05-06 16:21 | 43.65871 | -92.15009 | 4490 ft | 223 kts | 348° |
| 2026-05-06 16:22 | 43.67382 | -92.15339 | 4225 ft | 219 kts | 347° |
| 2026-05-06 16:22 | 43.68696 | -92.16179 | 3988 ft | 204 kts | 315° |
| 2026-05-06 16:22 | 43.69657 | -92.17577 | 3797 ft | 202 kts | 313° |
| 2026-05-06 16:22 | 43.70636 | -92.18986 | 3589 ft | 203 kts | 313° |
| 2026-05-06 16:23 | 43.71614 | -92.20409 | 3377 ft | 203 kts | 313° |
| 2026-05-06 16:23 | 43.72570 | -92.21814 | 3169 ft | 203 kts | 313° |
| 2026-05-06 16:23 | 43.73537 | -92.23245 | 2976 ft | 201 kts | 313° |
| 2026-05-06 16:23 | 43.74475 | -92.24640 | 2966 ft | 198 kts | 313° |
| 2026-05-06 16:24 | 43.75425 | -92.26060 | 2969 ft | 202 kts | 313° |
| 2026-05-06 16:24 | 43.76382 | -92.27496 | 2963 ft | 203 kts | 313° |
| 2026-05-06 16:24 | 43.77328 | -92.28918 | 2955 ft | 201 kts | 312° |
| 2026-05-06 16:24 | 43.78278 | -92.30351 | 2954 ft | 201 kts | 313° |
| 2026-05-06 16:25 | 43.79215 | -92.31766 | 2957 ft | 202 kts | 312° |
| 2026-05-06 16:25 | 43.80171 | -92.33211 | 2955 ft | 201 kts | 312° |
| 2026-05-06 16:25 | 43.81100 | -92.34617 | 2953 ft | 201 kts | 312° |
| 2026-05-06 16:25 | 43.82044 | -92.36047 | 2955 ft | 201 kts | 312° |
| 2026-05-06 16:26 | 43.82994 | -92.37488 | 2956 ft | 201 kts | 312° |
| 2026-05-06 16:26 | 43.83924 | -92.38901 | 2961 ft | 201 kts | 312° |
| 2026-05-06 16:26 | 43.84867 | -92.40324 | 3069 ft | 192 kts | 313° |
| 2026-05-06 16:26 | 43.85759 | -92.41658 | 3040 ft | 185 kts | 313° |
| 2026-05-06 16:27 | 43.86588 | -92.42918 | 2964 ft | 167 kts | 312° |
| 2026-05-06 16:27 | 43.87340 | -92.44067 | 2668 ft | 158 kts | 312° |
| 2026-05-06 16:27 | 43.88052 | -92.45161 | 2308 ft | 147 kts | 312° |
| 2026-05-06 16:27 | 43.88712 | -92.46141 | 1975 ft | 136 kts | 313° |
| 2026-05-06 16:28 | 43.89356 | -92.47116 | 1690 ft | 139 kts | 310° |
| 2026-05-06 16:28 | 43.89981 | -92.48094 | 1462 ft | 134 kts | 311° |
| 2026-05-06 16:28 | 43.90608 | -92.49055 | 1309 ft | 130 kts | 311° |
| 2026-05-06 16:28 | 43.91110 | -92.49827 | 1296 ft | 78 kts | 313° |
| 2026-05-06 16:29 | 43.91359 | -92.50206 | 1289 ft | 35 kts | 313° |
| 2026-05-06 16:29 | 43.91482 | -92.50389 | 1284 ft | 18 kts | 323° |
| 2026-05-06 16:29 | 43.91570 | -92.50433 | 1282 ft | 9 kts | 356° |
| 2026-05-06 16:29 | 43.91620 | -92.50404 | 1281 ft | 6 kts | 40° |
| 2026-05-06 16:30 | 43.91629 | -92.50368 | 1280 ft | 4 kts | 91° |
| 2026-05-06 16:30 | 43.91623 | -92.50337 | 1281 ft | 5 kts | 118° |
| 2026-05-06 16:30 | 43.91567 | -92.50242 | 1283 ft | 13 kts | 132° |
| 2026-05-06 16:30 | 43.91490 | -92.50124 | 1285 ft | 17 kts | 133° |
| 2026-05-06 16:31 | 43.91409 | -92.50003 | 1287 ft | 15 kts | 133° |
| 2026-05-06 16:31 | 43.91345 | -92.49905 | 1290 ft | 12 kts | 132° |
| 2026-05-06 16:31 | 43.91288 | -92.49817 | 1291 ft | 13 kts | 132° |
| 2026-05-06 16:31 | 43.91208 | -92.49694 | 1293 ft | 20 kts | 133° |
| 2026-05-06 16:32 | 43.91110 | -92.49545 | 1295 ft | 20 kts | 133° |
| 2026-05-06 16:32 | 43.91022 | -92.49411 | 1297 ft | 17 kts | 132° |
| 2026-05-06 16:32 | 43.90950 | -92.49300 | 1298 ft | 14 kts | 132° |
| 2026-05-06 16:32 | 43.90890 | -92.49206 | 1300 ft | 11 kts | 132° |
| 2026-05-06 16:33 | 43.90842 | -92.49133 | 1300 ft | 9 kts | 132° |
| 2026-05-06 16:33 | 43.90807 | -92.49073 | 1300 ft | 6 kts | 115° |
| 2026-05-06 16:33 | 43.90825 | -92.49015 | 1299 ft | 9 kts | 43° |
| 2026-05-06 16:34 | 43.90830 | -92.48876 | 1299 ft | 6 kts | 96° |
| 2026-05-06 16:34 | 43.90826 | -92.48832 | 1299 ft | 2 kts | 96° |
| 2026-05-06 16:34 | 43.90826 | -92.48829 | 1298 ft | 0 kts | 96° |